sensor_id;sensor_type;location;lat;lon;timestamp;temperature;humidity
26326;DHT22;14032;52.510;7.342;2022-10-16T00:01:09;12.80;99.90
26326;DHT22;14032;52.510;7.342;2022-10-16T00:03:37;12.90;99.90
26326;DHT22;14032;52.510;7.342;2022-10-16T00:06:03;12.80;99.90
26326;DHT22;14032;52.510;7.342;2022-10-16T00:08:29;12.80;99.90
26326;DHT22;14032;52.510;7.342;2022-10-16T00:11:04;12.70;99.90
26326;DHT22;14032;52.510;7.342;2022-10-16T00:13:30;12.80;99.90
26326;DHT22;14032;52.510;7.342;2022-10-16T00:15:58;12.70;99.90
26326;DHT22;14032;52.510;7.342;2022-10-16T00:18:24;12.70;99.90
26326;DHT22;14032;52.510;7.342;2022-10-16T00:20:50;12.70;99.90
26326;DHT22;14032;52.510;7.342;2022-10-16T00:23:15;12.70;99.90
26326;DHT22;14032;52.510;7.342;2022-10-16T00:25:41;12.70;99.90
26326;DHT22;14032;52.510;7.342;2022-10-16T00:28:07;12.70;99.90
26326;DHT22;14032;52.510;7.342;2022-10-16T00:30:32;12.70;99.90
26326;DHT22;14032;52.510;7.342;2022-10-16T00:32:58;12.70;99.90
26326;DHT22;14032;52.510;7.342;2022-10-16T00:35:23;12.80;99.90
26326;DHT22;14032;52.510;7.342;2022-10-16T00:37:49;12.80;99.90
26326;DHT22;14032;52.510;7.342;2022-10-16T00:40:15;12.80;99.90
26326;DHT22;14032;52.510;7.342;2022-10-16T00:42:41;12.70;99.90
26326;DHT22;14032;52.510;7.342;2022-10-16T00:45:07;12.90;99.90
26326;DHT22;14032;52.510;7.342;2022-10-16T00:47:37;12.90;99.90
26326;DHT22;14032;52.510;7.342;2022-10-16T00:50:22;12.90;99.90
26326;DHT22;14032;52.510;7.342;2022-10-16T00:52:51;12.90;99.90
26326;DHT22;14032;52.510;7.342;2022-10-16T00:55:17;12.90;99.90
26326;DHT22;14032;52.510;7.342;2022-10-16T00:57:44;13.00;99.90
26326;DHT22;14032;52.510;7.342;2022-10-16T01:00:12;13.00;99.90
26326;DHT22;14032;52.510;7.342;2022-10-16T01:02:38;13.00;99.90
26326;DHT22;14032;52.510;7.342;2022-10-16T01:05:04;13.00;99.90
26326;DHT22;14032;52.510;7.342;2022-10-16T01:18:02;12.70;99.90
26326;DHT22;14032;52.510;7.342;2022-10-16T01:20:34;12.60;99.90
26326;DHT22;14032;52.510;7.342;2022-10-16T01:31:32;12.50;99.90
26326;DHT22;14032;52.510;7.342;2022-10-16T01:34:03;12.40;99.90
26326;DHT22;14032;52.510;7.342;2022-10-16T01:36:38;12.40;99.90
26326;DHT22;14032;52.510;7.342;2022-10-16T01:39:05;12.40;99.90
26326;DHT22;14032;52.510;7.342;2022-10-16T01:41:38;12.40;99.90
26326;DHT22;14032;52.510;7.342;2022-10-16T01:44:12;12.40;99.90
26326;DHT22;14032;52.510;7.342;2022-10-16T01:46:41;12.40;99.90
26326;DHT22;14032;52.510;7.342;2022-10-16T01:49:07;12.40;99.90
26326;DHT22;14032;52.510;7.342;2022-10-16T01:51:35;12.30;99.90
26326;DHT22;14032;52.510;7.342;2022-10-16T01:54:04;12.40;99.90
26326;DHT22;14032;52.510;7.342;2022-10-16T01:56:32;12.30;99.90
26326;DHT22;14032;52.510;7.342;2022-10-16T01:59:13;12.30;99.90
26326;DHT22;14032;52.510;7.342;2022-10-16T02:01:44;12.30;99.90
26326;DHT22;14032;52.510;7.342;2022-10-16T02:04:31;12.20;99.90
26326;DHT22;14032;52.510;7.342;2022-10-16T02:06:57;12.20;99.90
26326;DHT22;14032;52.510;7.342;2022-10-16T02:09:23;12.30;99.90
26326;DHT22;14032;52.510;7.342;2022-10-16T02:11:51;12.30;99.90
26326;DHT22;14032;52.510;7.342;2022-10-16T02:14:19;12.20;99.90
26326;DHT22;14032;52.510;7.342;2022-10-16T02:16:46;12.20;99.90
26326;DHT22;14032;52.510;7.342;2022-10-16T02:19:13;12.20;99.90
26326;DHT22;14032;52.510;7.342;2022-10-16T02:21:57;12.20;99.90
26326;DHT22;14032;52.510;7.342;2022-10-16T02:24:40;12.20;99.90
26326;DHT22;14032;52.510;7.342;2022-10-16T02:27:25;12.20;99.90
26326;DHT22;14032;52.510;7.342;2022-10-16T02:30:01;12.20;99.90
26326;DHT22;14032;52.510;7.342;2022-10-16T02:32:33;12.20;99.90
26326;DHT22;14032;52.510;7.342;2022-10-16T02:35:00;12.20;99.90
26326;DHT22;14032;52.510;7.342;2022-10-16T02:37:26;12.20;99.90
26326;DHT22;14032;52.510;7.342;2022-10-16T02:39:54;12.30;99.90
26326;DHT22;14032;52.510;7.342;2022-10-16T02:42:20;12.30;99.90
26326;DHT22;14032;52.510;7.342;2022-10-16T02:44:46;12.30;99.90
26326;DHT22;14032;52.510;7.342;2022-10-16T02:47:11;12.30;99.90
26326;DHT22;14032;52.510;7.342;2022-10-16T02:49:37;12.30;99.90
26326;DHT22;14032;52.510;7.342;2022-10-16T02:52:03;12.30;99.90
26326;DHT22;14032;52.510;7.342;2022-10-16T02:54:29;12.30;99.90
26326;DHT22;14032;52.510;7.342;2022-10-16T02:56:54;12.30;99.90
26326;DHT22;14032;52.510;7.342;2022-10-16T02:59:20;12.30;99.90
26326;DHT22;14032;52.510;7.342;2022-10-16T03:01:45;12.30;99.90
26326;DHT22;14032;52.510;7.342;2022-10-16T03:04:11;12.30;99.90
26326;DHT22;14032;52.510;7.342;2022-10-16T03:06:36;12.30;99.90
26326;DHT22;14032;52.510;7.342;2022-10-16T03:09:03;12.40;99.90
26326;DHT22;14032;52.510;7.342;2022-10-16T03:11:29;12.40;99.90
26326;DHT22;14032;52.510;7.342;2022-10-16T03:13:54;12.40;99.90
26326;DHT22;14032;52.510;7.342;2022-10-16T03:16:20;12.40;99.90
26326;DHT22;14032;52.510;7.342;2022-10-16T03:18:49;12.40;99.90
26326;DHT22;14032;52.510;7.342;2022-10-16T03:21:15;12.50;99.90
26326;DHT22;14032;52.510;7.342;2022-10-16T03:23:41;12.50;99.90
26326;DHT22;14032;52.510;7.342;2022-10-16T03:26:06;12.40;99.90
26326;DHT22;14032;52.510;7.342;2022-10-16T03:28:32;12.50;99.90
26326;DHT22;14032;52.510;7.342;2022-10-16T03:30:57;12.50;99.90
26326;DHT22;14032;52.510;7.342;2022-10-16T03:33:23;12.50;99.90
26326;DHT22;14032;52.510;7.342;2022-10-16T03:35:53;12.50;99.90
26326;DHT22;14032;52.510;7.342;2022-10-16T03:38:19;12.60;99.90
26326;DHT22;14032;52.510;7.342;2022-10-16T03:40:45;12.60;99.90
26326;DHT22;14032;52.510;7.342;2022-10-16T03:43:10;12.70;99.90
26326;DHT22;14032;52.510;7.342;2022-10-16T03:45:36;12.80;99.90
26326;DHT22;14032;52.510;7.342;2022-10-16T03:48:01;12.80;99.90
26326;DHT22;14032;52.510;7.342;2022-10-16T03:50:28;12.80;99.90
26326;DHT22;14032;52.510;7.342;2022-10-16T03:52:54;12.80;99.90
26326;DHT22;14032;52.510;7.342;2022-10-16T03:55:20;12.90;99.90
26326;DHT22;14032;52.510;7.342;2022-10-16T03:57:45;12.90;99.90
26326;DHT22;14032;52.510;7.342;2022-10-16T04:00:12;12.90;99.90
26326;DHT22;14032;52.510;7.342;2022-10-16T04:02:37;13.00;99.90
26326;DHT22;14032;52.510;7.342;2022-10-16T04:05:03;13.00;99.90
26326;DHT22;14032;52.510;7.342;2022-10-16T04:07:29;13.00;99.90
26326;DHT22;14032;52.510;7.342;2022-10-16T04:09:54;12.90;99.90
26326;DHT22;14032;52.510;7.342;2022-10-16T04:12:20;13.00;99.90
26326;DHT22;14032;52.510;7.342;2022-10-16T04:14:45;13.00;99.90
26326;DHT22;14032;52.510;7.342;2022-10-16T04:17:11;13.10;99.90
26326;DHT22;14032;52.510;7.342;2022-10-16T04:19:37;13.00;99.90
26326;DHT22;14032;52.510;7.342;2022-10-16T04:22:02;13.00;99.90
26326;DHT22;14032;52.510;7.342;2022-10-16T04:24:28;13.10;99.90
26326;DHT22;14032;52.510;7.342;2022-10-16T04:26:54;13.00;99.90
26326;DHT22;14032;52.510;7.342;2022-10-16T04:29:19;13.00;99.90
26326;DHT22;14032;52.510;7.342;2022-10-16T04:31:45;13.00;99.90
26326;DHT22;14032;52.510;7.342;2022-10-16T04:34:11;13.00;99.90
26326;DHT22;14032;52.510;7.342;2022-10-16T04:36:37;13.00;99.90
26326;DHT22;14032;52.510;7.342;2022-10-16T04:39:02;13.00;99.90
26326;DHT22;14032;52.510;7.342;2022-10-16T04:41:28;13.00;99.90
26326;DHT22;14032;52.510;7.342;2022-10-16T04:43:54;13.00;99.90
26326;DHT22;14032;52.510;7.342;2022-10-16T04:46:19;13.10;99.90
26326;DHT22;14032;52.510;7.342;2022-10-16T04:48:45;13.10;99.90
26326;DHT22;14032;52.510;7.342;2022-10-16T04:51:12;13.00;99.90
26326;DHT22;14032;52.510;7.342;2022-10-16T04:53:37;13.10;99.90
26326;DHT22;14032;52.510;7.342;2022-10-16T04:56:03;13.10;99.90
26326;DHT22;14032;52.510;7.342;2022-10-16T04:58:29;13.10;99.90
26326;DHT22;14032;52.510;7.342;2022-10-16T05:00:54;13.10;99.90
26326;DHT22;14032;52.510;7.342;2022-10-16T05:03:20;13.10;99.90
26326;DHT22;14032;52.510;7.342;2022-10-16T05:05:46;13.10;99.90
26326;DHT22;14032;52.510;7.342;2022-10-16T05:08:13;13.10;99.90
26326;DHT22;14032;52.510;7.342;2022-10-16T05:10:42;13.10;99.90
26326;DHT22;14032;52.510;7.342;2022-10-16T05:13:07;13.10;99.90
26326;DHT22;14032;52.510;7.342;2022-10-16T05:15:33;13.10;99.90
26326;DHT22;14032;52.510;7.342;2022-10-16T05:17:59;13.10;99.90
26326;DHT22;14032;52.510;7.342;2022-10-16T05:20:25;13.10;99.90
26326;DHT22;14032;52.510;7.342;2022-10-16T05:22:50;13.20;99.90
26326;DHT22;14032;52.510;7.342;2022-10-16T05:25:16;13.20;99.90
26326;DHT22;14032;52.510;7.342;2022-10-16T05:27:42;13.20;99.90
26326;DHT22;14032;52.510;7.342;2022-10-16T05:30:07;13.20;99.90
26326;DHT22;14032;52.510;7.342;2022-10-16T05:32:33;13.20;99.90
26326;DHT22;14032;52.510;7.342;2022-10-16T05:34:59;13.20;99.90
26326;DHT22;14032;52.510;7.342;2022-10-16T05:37:27;13.20;99.90
26326;DHT22;14032;52.510;7.342;2022-10-16T05:39:52;13.10;99.90
26326;DHT22;14032;52.510;7.342;2022-10-16T05:42:19;13.10;99.90
26326;DHT22;14032;52.510;7.342;2022-10-16T05:44:45;13.10;99.90
26326;DHT22;14032;52.510;7.342;2022-10-16T05:47:13;13.10;99.90
26326;DHT22;14032;52.510;7.342;2022-10-16T05:49:39;13.10;99.90
26326;DHT22;14032;52.510;7.342;2022-10-16T05:52:05;13.10;99.90
26326;DHT22;14032;52.510;7.342;2022-10-16T05:54:30;13.10;99.90
26326;DHT22;14032;52.510;7.342;2022-10-16T05:56:56;13.10;99.90
26326;DHT22;14032;52.510;7.342;2022-10-16T05:59:23;13.10;99.90
26326;DHT22;14032;52.510;7.342;2022-10-16T06:01:48;13.10;99.90
26326;DHT22;14032;52.510;7.342;2022-10-16T06:04:14;13.00;99.90
26326;DHT22;14032;52.510;7.342;2022-10-16T06:06:40;13.00;99.90
26326;DHT22;14032;52.510;7.342;2022-10-16T06:09:05;13.00;99.90
26326;DHT22;14032;52.510;7.342;2022-10-16T06:11:32;12.90;99.90
26326;DHT22;14032;52.510;7.342;2022-10-16T06:14:00;12.90;99.90
26326;DHT22;14032;52.510;7.342;2022-10-16T06:16:28;12.90;99.90
26326;DHT22;14032;52.510;7.342;2022-10-16T06:18:55;12.90;99.90
26326;DHT22;14032;52.510;7.342;2022-10-16T06:21:26;12.90;99.90
26326;DHT22;14032;52.510;7.342;2022-10-16T06:23:52;12.90;99.90
26326;DHT22;14032;52.510;7.342;2022-10-16T06:26:20;12.90;99.90
26326;DHT22;14032;52.510;7.342;2022-10-16T06:28:46;12.90;99.90
26326;DHT22;14032;52.510;7.342;2022-10-16T06:31:13;12.90;99.90
26326;DHT22;14032;52.510;7.342;2022-10-16T06:33:39;12.90;99.90
26326;DHT22;14032;52.510;7.342;2022-10-16T06:38:34;12.90;99.90
26326;DHT22;14032;52.510;7.342;2022-10-16T06:41:00;12.90;99.90
26326;DHT22;14032;52.510;7.342;2022-10-16T06:43:28;12.90;99.90
26326;DHT22;14032;52.510;7.342;2022-10-16T06:45:57;12.90;99.90
26326;DHT22;14032;52.510;7.342;2022-10-16T06:48:23;12.90;99.90
26326;DHT22;14032;52.510;7.342;2022-10-16T06:51:01;12.90;99.90
26326;DHT22;14032;52.510;7.342;2022-10-16T06:53:29;12.90;99.90
26326;DHT22;14032;52.510;7.342;2022-10-16T06:55:55;13.00;99.90
26326;DHT22;14032;52.510;7.342;2022-10-16T06:58:20;13.00;99.90
26326;DHT22;14032;52.510;7.342;2022-10-16T07:00:46;13.00;99.90
26326;DHT22;14032;52.510;7.342;2022-10-16T07:03:12;13.00;99.90
26326;DHT22;14032;52.510;7.342;2022-10-16T07:05:42;13.00;99.90
26326;DHT22;14032;52.510;7.342;2022-10-16T07:08:08;13.00;99.90
26326;DHT22;14032;52.510;7.342;2022-10-16T07:10:34;13.10;99.90
26326;DHT22;14032;52.510;7.342;2022-10-16T07:12:59;13.10;99.90
26326;DHT22;14032;52.510;7.342;2022-10-16T07:15:26;13.20;99.90
26326;DHT22;14032;52.510;7.342;2022-10-16T07:17:52;13.10;99.90
26326;DHT22;14032;52.510;7.342;2022-10-16T07:20:18;13.10;99.90
26326;DHT22;14032;52.510;7.342;2022-10-16T07:22:43;13.10;99.90
26326;DHT22;14032;52.510;7.342;2022-10-16T07:25:41;13.20;99.90
26326;DHT22;14032;52.510;7.342;2022-10-16T07:28:07;13.20;99.90
26326;DHT22;14032;52.510;7.342;2022-10-16T07:30:35;13.30;99.90
26326;DHT22;14032;52.510;7.342;2022-10-16T07:33:18;13.40;99.90
26326;DHT22;14032;52.510;7.342;2022-10-16T07:35:53;13.40;99.90
26326;DHT22;14032;52.510;7.342;2022-10-16T07:38:20;13.40;99.90
26326;DHT22;14032;52.510;7.342;2022-10-16T07:40:46;13.40;99.90
26326;DHT22;14032;52.510;7.342;2022-10-16T07:43:12;13.50;99.90
26326;DHT22;14032;52.510;7.342;2022-10-16T07:45:48;13.50;99.90
26326;DHT22;14032;52.510;7.342;2022-10-16T07:48:15;13.50;99.90
26326;DHT22;14032;52.510;7.342;2022-10-16T07:50:41;13.60;99.90
26326;DHT22;14032;52.510;7.342;2022-10-16T07:53:07;13.60;99.90
26326;DHT22;14032;52.510;7.342;2022-10-16T07:55:32;13.60;99.90
26326;DHT22;14032;52.510;7.342;2022-10-16T07:57:58;13.70;99.90
26326;DHT22;14032;52.510;7.342;2022-10-16T08:00:24;13.70;99.90
26326;DHT22;14032;52.510;7.342;2022-10-16T08:02:50;13.70;99.90
26326;DHT22;14032;52.510;7.342;2022-10-16T08:05:16;13.70;99.90
26326;DHT22;14032;52.510;7.342;2022-10-16T08:07:42;13.70;99.90
26326;DHT22;14032;52.510;7.342;2022-10-16T08:10:21;13.70;99.90
26326;DHT22;14032;52.510;7.342;2022-10-16T08:12:47;13.70;99.90
26326;DHT22;14032;52.510;7.342;2022-10-16T08:15:12;13.70;99.90
26326;DHT22;14032;52.510;7.342;2022-10-16T08:17:38;13.70;99.90
26326;DHT22;14032;52.510;7.342;2022-10-16T08:20:05;13.70;99.90
26326;DHT22;14032;52.510;7.342;2022-10-16T08:22:30;13.80;99.90
26326;DHT22;14032;52.510;7.342;2022-10-16T08:24:56;13.90;99.90
26326;DHT22;14032;52.510;7.342;2022-10-16T08:27:22;13.90;99.90
26326;DHT22;14032;52.510;7.342;2022-10-16T08:29:51;14.00;99.90
26326;DHT22;14032;52.510;7.342;2022-10-16T08:32:16;14.00;99.90
26326;DHT22;14032;52.510;7.342;2022-10-16T08:34:42;14.10;99.90
26326;DHT22;14032;52.510;7.342;2022-10-16T08:37:07;14.10;99.90
26326;DHT22;14032;52.510;7.342;2022-10-16T08:39:36;14.20;99.90
26326;DHT22;14032;52.510;7.342;2022-10-16T08:42:15;14.20;99.90
26326;DHT22;14032;52.510;7.342;2022-10-16T08:47:53;14.30;99.90
26326;DHT22;14032;52.510;7.342;2022-10-16T08:50:30;14.40;99.90
26326;DHT22;14032;52.510;7.342;2022-10-16T08:52:57;14.40;99.90
26326;DHT22;14032;52.510;7.342;2022-10-16T08:55:33;14.40;99.90
26326;DHT22;14032;52.510;7.342;2022-10-16T08:58:00;14.50;99.90
26326;DHT22;14032;52.510;7.342;2022-10-16T09:00:26;14.50;99.90
26326;DHT22;14032;52.510;7.342;2022-10-16T09:11:32;14.70;99.90
26326;DHT22;14032;52.510;7.342;2022-10-16T09:14:45;14.70;99.90
26326;DHT22;14032;52.510;7.342;2022-10-16T09:20:23;14.80;99.90
26326;DHT22;14032;52.510;7.342;2022-10-16T09:23:17;14.70;99.90
26326;DHT22;14032;52.510;7.342;2022-10-16T09:25:44;14.80;99.90
26326;DHT22;14032;52.510;7.342;2022-10-16T09:28:10;14.80;99.90
26326;DHT22;14032;52.510;7.342;2022-10-16T09:30:37;14.80;99.90
26326;DHT22;14032;52.510;7.342;2022-10-16T09:33:03;14.80;99.90
26326;DHT22;14032;52.510;7.342;2022-10-16T09:35:39;14.90;99.90
26326;DHT22;14032;52.510;7.342;2022-10-16T09:38:06;15.00;99.90
26326;DHT22;14032;52.510;7.342;2022-10-16T09:40:39;15.00;99.90
26326;DHT22;14032;52.510;7.342;2022-10-16T09:45:59;15.20;99.90
26326;DHT22;14032;52.510;7.342;2022-10-16T09:48:33;15.40;99.90
26326;DHT22;14032;52.510;7.342;2022-10-16T09:51:04;15.30;99.90
26326;DHT22;14032;52.510;7.342;2022-10-16T09:53:42;15.50;99.90
26326;DHT22;14032;52.510;7.342;2022-10-16T09:56:10;15.50;99.90
26326;DHT22;14032;52.510;7.342;2022-10-16T09:58:42;15.50;99.90
26326;DHT22;14032;52.510;7.342;2022-10-16T10:01:13;15.60;99.90
26326;DHT22;14032;52.510;7.342;2022-10-16T10:03:42;15.70;99.90
26326;DHT22;14032;52.510;7.342;2022-10-16T10:06:31;15.70;99.90
26326;DHT22;14032;52.510;7.342;2022-10-16T10:14:18;15.80;99.90
26326;DHT22;14032;52.510;7.342;2022-10-16T10:16:45;15.80;99.90
26326;DHT22;14032;52.510;7.342;2022-10-16T10:19:22;15.90;99.90
26326;DHT22;14032;52.510;7.342;2022-10-16T10:21:49;15.90;99.90
26326;DHT22;14032;52.510;7.342;2022-10-16T10:24:17;15.90;99.90
26326;DHT22;14032;52.510;7.342;2022-10-16T10:27:11;15.90;99.90
26326;DHT22;14032;52.510;7.342;2022-10-16T10:29:43;16.00;99.90
26326;DHT22;14032;52.510;7.342;2022-10-16T10:40:51;16.10;99.90
26326;DHT22;14032;52.510;7.342;2022-10-16T10:46:04;16.10;99.90
26326;DHT22;14032;52.510;7.342;2022-10-16T10:51:58;16.20;99.90
26326;DHT22;14032;52.510;7.342;2022-10-16T11:08:02;16.10;99.90
26326;DHT22;14032;52.510;7.342;2022-10-16T11:10:57;16.20;99.90
26326;DHT22;14032;52.510;7.342;2022-10-16T11:13:32;16.30;99.90
26326;DHT22;14032;52.510;7.342;2022-10-16T11:16:15;16.40;99.90
26326;DHT22;14032;52.510;7.342;2022-10-16T11:18:45;16.50;99.90
26326;DHT22;14032;52.510;7.342;2022-10-16T11:21:14;16.50;99.90
26326;DHT22;14032;52.510;7.342;2022-10-16T11:26:21;16.60;99.90
26326;DHT22;14032;52.510;7.342;2022-10-16T11:28:51;16.60;99.90
26326;DHT22;14032;52.510;7.342;2022-10-16T11:34:06;16.60;99.90
26326;DHT22;14032;52.510;7.342;2022-10-16T11:37:09;16.50;99.90
26326;DHT22;14032;52.510;7.342;2022-10-16T11:39:44;16.50;99.90
26326;DHT22;14032;52.510;7.342;2022-10-16T11:42:13;16.50;99.90
26326;DHT22;14032;52.510;7.342;2022-10-16T11:47:45;16.50;99.90
26326;DHT22;14032;52.510;7.342;2022-10-16T11:50:48;16.60;99.90
26326;DHT22;14032;52.510;7.342;2022-10-16T11:56:44;16.60;99.90
26326;DHT22;14032;52.510;7.342;2022-10-16T11:59:23;16.60;99.90
26326;DHT22;14032;52.510;7.342;2022-10-16T12:05:02;16.60;99.90
26326;DHT22;14032;52.510;7.342;2022-10-16T12:07:39;16.60;99.90
26326;DHT22;14032;52.510;7.342;2022-10-16T12:10:27;16.60;99.90
26326;DHT22;14032;52.510;7.342;2022-10-16T12:12:56;16.50;99.90
26326;DHT22;14032;52.510;7.342;2022-10-16T12:15:27;16.40;99.90
26326;DHT22;14032;52.510;7.342;2022-10-16T12:17:56;16.30;99.90
26326;DHT22;14032;52.510;7.342;2022-10-16T12:20:33;16.30;99.90
26326;DHT22;14032;52.510;7.342;2022-10-16T12:23:05;16.20;99.90
26326;DHT22;14032;52.510;7.342;2022-10-16T12:25:39;16.20;99.90
26326;DHT22;14032;52.510;7.342;2022-10-16T12:30:41;16.00;99.90
26326;DHT22;14032;52.510;7.342;2022-10-16T12:33:21;16.00;99.90
26326;DHT22;14032;52.510;7.342;2022-10-16T12:35:47;16.00;99.90
26326;DHT22;14032;52.510;7.342;2022-10-16T12:38:19;15.90;99.90
26326;DHT22;14032;52.510;7.342;2022-10-16T12:40:53;15.90;99.90
26326;DHT22;14032;52.510;7.342;2022-10-16T12:45:45;16.00;99.90
26326;DHT22;14032;52.510;7.342;2022-10-16T12:48:21;16.10;99.90
26326;DHT22;14032;52.510;7.342;2022-10-16T12:50:47;16.10;99.90
26326;DHT22;14032;52.510;7.342;2022-10-16T12:53:25;16.10;99.90
26326;DHT22;14032;52.510;7.342;2022-10-16T12:56:00;16.20;99.90
26326;DHT22;14032;52.510;7.342;2022-10-16T12:59:04;16.20;99.90
26326;DHT22;14032;52.510;7.342;2022-10-16T13:01:52;16.40;99.90
26326;DHT22;14032;52.510;7.342;2022-10-16T13:09:49;16.70;99.90
26326;DHT22;14032;52.510;7.342;2022-10-16T13:18:16;16.50;99.90
26326;DHT22;14032;52.510;7.342;2022-10-16T13:21:02;16.50;99.90
26326;DHT22;14032;52.510;7.342;2022-10-16T13:23:36;16.40;99.90
26326;DHT22;14032;52.510;7.342;2022-10-16T13:28:39;16.30;99.90
26326;DHT22;14032;52.510;7.342;2022-10-16T13:31:05;16.30;99.90
26326;DHT22;14032;52.510;7.342;2022-10-16T13:33:46;16.20;99.90
26326;DHT22;14032;52.510;7.342;2022-10-16T13:36:25;16.20;99.90
26326;DHT22;14032;52.510;7.342;2022-10-16T13:39:15;16.20;99.90
26326;DHT22;14032;52.510;7.342;2022-10-16T13:41:43;16.20;99.90
26326;DHT22;14032;52.510;7.342;2022-10-16T13:44:19;16.10;99.90
26326;DHT22;14032;52.510;7.342;2022-10-16T13:46:45;16.10;99.90
26326;DHT22;14032;52.510;7.342;2022-10-16T13:49:14;16.10;99.90
26326;DHT22;14032;52.510;7.342;2022-10-16T13:51:40;16.10;99.90
26326;DHT22;14032;52.510;7.342;2022-10-16T13:54:09;16.20;99.90
26326;DHT22;14032;52.510;7.342;2022-10-16T13:56:36;16.20;99.90
26326;DHT22;14032;52.510;7.342;2022-10-16T13:59:06;16.20;99.90
26326;DHT22;14032;52.510;7.342;2022-10-16T14:01:34;16.30;99.90
26326;DHT22;14032;52.510;7.342;2022-10-16T14:04:10;16.30;99.90
26326;DHT22;14032;52.510;7.342;2022-10-16T14:06:41;16.30;99.90
26326;DHT22;14032;52.510;7.342;2022-10-16T14:09:26;16.30;99.90
26326;DHT22;14032;52.510;7.342;2022-10-16T14:11:58;16.30;99.90
26326;DHT22;14032;52.510;7.342;2022-10-16T14:14:29;16.30;99.90
26326;DHT22;14032;52.510;7.342;2022-10-16T14:16:56;16.30;99.90
26326;DHT22;14032;52.510;7.342;2022-10-16T14:19:25;16.30;99.90
26326;DHT22;14032;52.510;7.342;2022-10-16T14:21:52;16.30;99.90
26326;DHT22;14032;52.510;7.342;2022-10-16T14:24:33;16.30;99.90
26326;DHT22;14032;52.510;7.342;2022-10-16T14:26:59;16.30;99.90
26326;DHT22;14032;52.510;7.342;2022-10-16T14:29:27;16.30;99.90
26326;DHT22;14032;52.510;7.342;2022-10-16T14:32:03;16.20;99.90
26326;DHT22;14032;52.510;7.342;2022-10-16T14:34:37;16.30;99.90
26326;DHT22;14032;52.510;7.342;2022-10-16T14:37:09;16.20;99.90
26326;DHT22;14032;52.510;7.342;2022-10-16T14:39:35;16.20;99.90
26326;DHT22;14032;52.510;7.342;2022-10-16T14:42:01;16.20;99.90
26326;DHT22;14032;52.510;7.342;2022-10-16T14:44:30;16.20;99.90
26326;DHT22;14032;52.510;7.342;2022-10-16T14:46:57;16.20;99.90
26326;DHT22;14032;52.510;7.342;2022-10-16T14:49:23;16.20;99.90
26326;DHT22;14032;52.510;7.342;2022-10-16T14:51:49;16.20;99.90
26326;DHT22;14032;52.510;7.342;2022-10-16T14:54:17;16.20;99.90
26326;DHT22;14032;52.510;7.342;2022-10-16T14:59:18;16.20;99.90
26326;DHT22;14032;52.510;7.342;2022-10-16T15:01:45;16.30;99.90
26326;DHT22;14032;52.510;7.342;2022-10-16T15:04:12;16.30;99.90
26326;DHT22;14032;52.510;7.342;2022-10-16T15:06:38;16.30;99.90
26326;DHT22;14032;52.510;7.342;2022-10-16T15:09:03;16.30;99.90
26326;DHT22;14032;52.510;7.342;2022-10-16T15:11:31;16.30;99.90
26326;DHT22;14032;52.510;7.342;2022-10-16T15:14:00;16.20;99.90
26326;DHT22;14032;52.510;7.342;2022-10-16T15:16:26;16.30;99.90
26326;DHT22;14032;52.510;7.342;2022-10-16T15:18:52;16.30;99.90
26326;DHT22;14032;52.510;7.342;2022-10-16T15:21:30;16.30;99.90
26326;DHT22;14032;52.510;7.342;2022-10-16T15:23:57;16.20;99.90
26326;DHT22;14032;52.510;7.342;2022-10-16T15:26:25;16.20;99.90
26326;DHT22;14032;52.510;7.342;2022-10-16T15:28:51;16.10;99.90
26326;DHT22;14032;52.510;7.342;2022-10-16T15:31:17;16.10;99.90
26326;DHT22;14032;52.510;7.342;2022-10-16T15:33:42;16.00;99.90
26326;DHT22;14032;52.510;7.342;2022-10-16T15:36:08;16.00;99.90
26326;DHT22;14032;52.510;7.342;2022-10-16T15:38:35;16.00;99.90
26326;DHT22;14032;52.510;7.342;2022-10-16T15:41:00;15.90;99.90
26326;DHT22;14032;52.510;7.342;2022-10-16T15:43:26;15.80;99.90
26326;DHT22;14032;52.510;7.342;2022-10-16T15:46:01;15.70;99.90
26326;DHT22;14032;52.510;7.342;2022-10-16T15:48:28;15.60;99.90
26326;DHT22;14032;52.510;7.342;2022-10-16T15:50:54;15.50;99.90
26326;DHT22;14032;52.510;7.342;2022-10-16T15:53:20;15.50;99.90
26326;DHT22;14032;52.510;7.342;2022-10-16T15:55:45;15.40;99.90
26326;DHT22;14032;52.510;7.342;2022-10-16T15:58:11;15.30;99.90
26326;DHT22;14032;52.510;7.342;2022-10-16T16:00:36;15.20;99.90
26326;DHT22;14032;52.510;7.342;2022-10-16T16:03:04;15.20;99.90
26326;DHT22;14032;52.510;7.342;2022-10-16T16:05:29;15.20;99.90
26326;DHT22;14032;52.510;7.342;2022-10-16T16:07:55;15.10;99.90
26326;DHT22;14032;52.510;7.342;2022-10-16T16:10:21;15.00;99.90
26326;DHT22;14032;52.510;7.342;2022-10-16T16:12:48;14.90;99.90
26326;DHT22;14032;52.510;7.342;2022-10-16T16:15:21;14.90;99.90
26326;DHT22;14032;52.510;7.342;2022-10-16T16:17:47;14.80;99.90
26326;DHT22;14032;52.510;7.342;2022-10-16T16:20:13;14.70;99.90
26326;DHT22;14032;52.510;7.342;2022-10-16T16:22:39;14.70;99.90
26326;DHT22;14032;52.510;7.342;2022-10-16T16:25:08;14.60;99.90
26326;DHT22;14032;52.510;7.342;2022-10-16T16:27:33;14.50;99.90
26326;DHT22;14032;52.510;7.342;2022-10-16T16:30:02;14.40;99.90
26326;DHT22;14032;52.510;7.342;2022-10-16T16:32:38;14.40;99.90
26326;DHT22;14032;52.510;7.342;2022-10-16T16:35:04;14.30;99.90
26326;DHT22;14032;52.510;7.342;2022-10-16T16:37:30;14.20;99.90
26326;DHT22;14032;52.510;7.342;2022-10-16T16:39:56;14.20;99.90
26326;DHT22;14032;52.510;7.342;2022-10-16T16:42:25;14.10;99.90
26326;DHT22;14032;52.510;7.342;2022-10-16T16:44:51;14.00;99.90
26326;DHT22;14032;52.510;7.342;2022-10-16T16:47:16;14.00;99.90
26326;DHT22;14032;52.510;7.342;2022-10-16T16:49:42;13.90;99.90
26326;DHT22;14032;52.510;7.342;2022-10-16T16:52:11;13.90;99.90
26326;DHT22;14032;52.510;7.342;2022-10-16T16:54:36;13.80;99.90
26326;DHT22;14032;52.510;7.342;2022-10-16T16:57:02;13.80;99.90
26326;DHT22;14032;52.510;7.342;2022-10-16T16:59:29;13.70;99.90
26326;DHT22;14032;52.510;7.342;2022-10-16T17:02:00;13.70;99.90
26326;DHT22;14032;52.510;7.342;2022-10-16T17:04:29;13.70;99.90
26326;DHT22;14032;52.510;7.342;2022-10-16T17:06:55;13.60;99.90
26326;DHT22;14032;52.510;7.342;2022-10-16T17:09:21;13.60;99.90
26326;DHT22;14032;52.510;7.342;2022-10-16T17:11:47;13.60;99.90
26326;DHT22;14032;52.510;7.342;2022-10-16T17:14:14;13.60;99.90
26326;DHT22;14032;52.510;7.342;2022-10-16T17:16:40;13.50;99.90
26326;DHT22;14032;52.510;7.342;2022-10-16T17:19:12;13.50;99.90
26326;DHT22;14032;52.510;7.342;2022-10-16T17:21:38;13.50;99.90
26326;DHT22;14032;52.510;7.342;2022-10-16T17:24:05;13.50;99.90
26326;DHT22;14032;52.510;7.342;2022-10-16T17:26:31;13.40;99.90
26326;DHT22;14032;52.510;7.342;2022-10-16T17:28:59;13.40;99.90
26326;DHT22;14032;52.510;7.342;2022-10-16T17:31:28;13.40;99.90